Aérodrome :
LOGIN :

S'inscrire | Disclaimer

   EN    FR    IT 

 










Légende :    VFR   VFR Marginal   IFR   IFR Intensif   IFR Très Intensif
Visi : 
Plafond : 
>= 8 km
>= 3000ft
5 à 8 km
1000 à 3000 ft
1500m à 5 km
500 à 1000 ft
800 à 1500m
200 à 500 ft
< 800m
< 200 ft
Symboles :   Orages  Brouillard  Fortes neiges  Fortes précipitations  Vent > 20 kt
SIGMETs :   Divers  Orages  Givrage  Turbulence  Onde Orograph.  Cendres Volcan.







- Altitude de l'aérodrome : 870 ft
- Code IATA : ETZ
- Voir les cartes d'approche


LFJL - Metz Nancy Lorraine

DERNIER METAR :
  • 212200Z AUTO 14009KT 9999 NCD 18/17 Q1012 NOSIG

METARs EXPIRÉS :
  • 212130Z AUTO 16012KT 9999 NCD 18/17 Q1012 NOSIG
  • 212100Z AUTO 16010KT 9999 NCD 18/17 Q1012 TEMPO 18015G30KT 4000 TSRA SCT060CB
  • 212030Z AUTO 15014KT 9999 -RA ///TCU 18/17 Q1012 TEMPO 18015G30KT 4000 TSRA SCT060CB
  • 212000Z AUTO 18012G22KT 140V210 9999 -RA ///CB 21/16 Q1012 TEMPO 4000 TSRA
  • 211930Z AUTO 25006KT 9999 -RA ///CB 24/14 Q1011 TEMPO 18015G30KT 4000 TSRA

TAF TAF LFJL
Valide du 21 à 18h jusqu'au 22 à 18h UTC


211700Z 2118/2218 17005KT CAVOK
TEMPO 2119/2122 18015G30KT TS SCT060CB
PROB30
TEMPO 2119/2122 4000 TSRA
TEMPO 2201/2205 4000 BR
TEMPO 2205/2210 4500 SHRA SCT030TCU
BECMG 2210/2212 FEW040CB
TEMPO 2212/2218 20010G20KT -SHRA
Pas de NOTAMs connus pour ce terrain.



MET'MAP, la Météo Aéronautique d'un coup d'oeil ! - Copyright ORBIFLY Décembre 2007 - Disclaimer

ORBIFLY MET'MAP TEAM :

Programmation & Développement : Alexandra Zaïnal
Conception & Développement : Baudouin d'Aumeries
Co-Programmation & Développement : Marc-Olivier Méhu
Soutien technique & logistique : Manuel Goepfert

Contact : metmap@orbifly.com




SOURCES & CREDITS :

   NOAA